sensor_id;sensor_type;location;lat;lon;timestamp;P1;durP1;ratioP1;P2;durP2;ratioP2
19187;SDS011;9726;52.198;8.792;2023-02-12T00:00:10;21.70;;;11.30;;
19187;SDS011;9726;52.198;8.792;2023-02-12T00:02:40;25.43;;;11.27;;
19187;SDS011;9726;52.198;8.792;2023-02-12T00:05:08;21.57;;;10.50;;
19187;SDS011;9726;52.198;8.792;2023-02-12T00:07:35;24.87;;;10.93;;
19187;SDS011;9726;52.198;8.792;2023-02-12T00:10:03;23.43;;;10.17;;
19187;SDS011;9726;52.198;8.792;2023-02-12T00:12:30;30.47;;;11.70;;
19187;SDS011;9726;52.198;8.792;2023-02-12T00:14:57;24.03;;;12.27;;
19187;SDS011;9726;52.198;8.792;2023-02-12T00:17:26;28.23;;;13.93;;
19187;SDS011;9726;52.198;8.792;2023-02-12T00:19:53;25.30;;;12.97;;
19187;SDS011;9726;52.198;8.792;2023-02-12T00:22:21;31.87;;;15.10;;
19187;SDS011;9726;52.198;8.792;2023-02-12T00:24:48;28.17;;;14.93;;
19187;SDS011;9726;52.198;8.792;2023-02-12T00:27:16;30.90;;;15.93;;
19187;SDS011;9726;52.198;8.792;2023-02-12T00:29:43;32.50;;;17.57;;
19187;SDS011;9726;52.198;8.792;2023-02-12T00:32:10;37.93;;;18.83;;
19187;SDS011;9726;52.198;8.792;2023-02-12T00:34:39;40.00;;;18.70;;
19187;SDS011;9726;52.198;8.792;2023-02-12T00:37:07;33.73;;;19.23;;
19187;SDS011;9726;52.198;8.792;2023-02-12T00:39:34;34.03;;;17.57;;
19187;SDS011;9726;52.198;8.792;2023-02-12T00:42:03;35.17;;;20.43;;
19187;SDS011;9726;52.198;8.792;2023-02-12T00:44:31;39.53;;;17.67;;
19187;SDS011;9726;52.198;8.792;2023-02-12T00:46:58;40.17;;;19.70;;
19187;SDS011;9726;52.198;8.792;2023-02-12T00:49:28;34.87;;;18.67;;
19187;SDS011;9726;52.198;8.792;2023-02-12T00:52:03;33.87;;;19.03;;
19187;SDS011;9726;52.198;8.792;2023-02-12T00:54:30;40.30;;;19.57;;
19187;SDS011;9726;52.198;8.792;2023-02-12T00:56:58;43.87;;;20.20;;
19187;SDS011;9726;52.198;8.792;2023-02-12T00:59:28;42.30;;;19.77;;
19187;SDS011;9726;52.198;8.792;2023-02-12T01:01:55;36.77;;;18.30;;
19187;SDS011;9726;52.198;8.792;2023-02-12T01:04:23;42.00;;;20.20;;
19187;SDS011;9726;52.198;8.792;2023-02-12T01:06:50;40.10;;;21.67;;
19187;SDS011;9726;52.198;8.792;2023-02-12T01:09:17;33.77;;;19.73;;
19187;SDS011;9726;52.198;8.792;2023-02-12T01:11:46;41.03;;;20.43;;
19187;SDS011;9726;52.198;8.792;2023-02-12T01:14:14;42.10;;;23.47;;
19187;SDS011;9726;52.198;8.792;2023-02-12T01:16:42;39.17;;;22.77;;
19187;SDS011;9726;52.198;8.792;2023-02-12T01:19:10;38.37;;;22.63;;
19187;SDS011;9726;52.198;8.792;2023-02-12T01:21:38;36.47;;;22.33;;
19187;SDS011;9726;52.198;8.792;2023-02-12T01:24:06;48.67;;;23.47;;
19187;SDS011;9726;52.198;8.792;2023-02-12T01:26:33;41.17;;;23.07;;
19187;SDS011;9726;52.198;8.792;2023-02-12T01:29:01;45.90;;;23.03;;
19187;SDS011;9726;52.198;8.792;2023-02-12T01:31:31;43.67;;;23.60;;
19187;SDS011;9726;52.198;8.792;2023-02-12T01:34:00;40.47;;;24.00;;
19187;SDS011;9726;52.198;8.792;2023-02-12T01:36:28;39.00;;;23.10;;
19187;SDS011;9726;52.198;8.792;2023-02-12T01:38:56;42.33;;;23.87;;
19187;SDS011;9726;52.198;8.792;2023-02-12T01:41:26;41.60;;;24.07;;
19187;SDS011;9726;52.198;8.792;2023-02-12T01:44:07;52.40;;;24.07;;
19187;SDS011;9726;52.198;8.792;2023-02-12T01:46:35;43.33;;;23.33;;
19187;SDS011;9726;52.198;8.792;2023-02-12T01:49:04;53.93;;;24.17;;
19187;SDS011;9726;52.198;8.792;2023-02-12T01:51:33;46.43;;;24.27;;
19187;SDS011;9726;52.198;8.792;2023-02-12T01:54:02;38.83;;;24.73;;
19187;SDS011;9726;52.198;8.792;2023-02-12T01:56:30;45.83;;;24.00;;
19187;SDS011;9726;52.198;8.792;2023-02-12T01:58:58;43.07;;;22.93;;
19187;SDS011;9726;52.198;8.792;2023-02-12T02:01:26;47.43;;;23.73;;
19187;SDS011;9726;52.198;8.792;2023-02-12T02:03:56;46.70;;;22.80;;
19187;SDS011;9726;52.198;8.792;2023-02-12T02:06:26;45.77;;;23.30;;
19187;SDS011;9726;52.198;8.792;2023-02-12T02:08:54;53.07;;;22.97;;
19187;SDS011;9726;52.198;8.792;2023-02-12T02:11:23;33.33;;;19.20;;
19187;SDS011;9726;52.198;8.792;2023-02-12T02:14:08;36.27;;;21.20;;
19187;SDS011;9726;52.198;8.792;2023-02-12T02:17:14;43.37;;;19.13;;
19187;SDS011;9726;52.198;8.792;2023-02-12T02:20:05;42.47;;;19.10;;
19187;SDS011;9726;52.198;8.792;2023-02-12T02:25:52;40.63;;;20.00;;
19187;SDS011;9726;52.198;8.792;2023-02-12T02:28:44;37.83;;;18.90;;
19187;SDS011;9726;52.198;8.792;2023-02-12T02:31:25;32.83;;;17.80;;
19187;SDS011;9726;52.198;8.792;2023-02-12T02:42:27;36.67;;;19.27;;
19187;SDS011;9726;52.198;8.792;2023-02-12T02:45:12;40.40;;;20.23;;
19187;SDS011;9726;52.198;8.792;2023-02-12T02:47:46;48.10;;;20.17;;
19187;SDS011;9726;52.198;8.792;2023-02-12T02:50:16;36.57;;;19.53;;
19187;SDS011;9726;52.198;8.792;2023-02-12T02:55:16;45.90;;;20.87;;
19187;SDS011;9726;52.198;8.792;2023-02-12T02:57:45;46.53;;;22.10;;
19187;SDS011;9726;52.198;8.792;2023-02-12T03:00:18;48.17;;;21.27;;
19187;SDS011;9726;52.198;8.792;2023-02-12T03:02:52;39.13;;;20.30;;
19187;SDS011;9726;52.198;8.792;2023-02-12T03:05:23;37.77;;;20.33;;
19187;SDS011;9726;52.198;8.792;2023-02-12T03:07:55;41.83;;;19.60;;
19187;SDS011;9726;52.198;8.792;2023-02-12T03:10:26;38.70;;;20.07;;
19187;SDS011;9726;52.198;8.792;2023-02-12T03:13:04;33.30;;;16.87;;
19187;SDS011;9726;52.198;8.792;2023-02-12T03:15:44;38.87;;;18.83;;
19187;SDS011;9726;52.198;8.792;2023-02-12T03:18:16;41.40;;;17.40;;
19187;SDS011;9726;52.198;8.792;2023-02-12T03:20:49;36.73;;;18.07;;
19187;SDS011;9726;52.198;8.792;2023-02-12T03:23:21;41.10;;;17.43;;
19187;SDS011;9726;52.198;8.792;2023-02-12T03:25:57;36.23;;;16.73;;
19187;SDS011;9726;52.198;8.792;2023-02-12T03:28:28;33.70;;;17.13;;
19187;SDS011;9726;52.198;8.792;2023-02-12T03:33:43;38.27;;;16.90;;
19187;SDS011;9726;52.198;8.792;2023-02-12T03:41:56;36.73;;;17.47;;
19187;SDS011;9726;52.198;8.792;2023-02-12T03:49:34;39.47;;;17.83;;
19187;SDS011;9726;52.198;8.792;2023-02-12T03:52:04;37.20;;;17.70;;
19187;SDS011;9726;52.198;8.792;2023-02-12T03:54:32;36.73;;;17.63;;
19187;SDS011;9726;52.198;8.792;2023-02-12T03:57:04;37.33;;;18.00;;
19187;SDS011;9726;52.198;8.792;2023-02-12T03:59:34;38.30;;;19.50;;
19187;SDS011;9726;52.198;8.792;2023-02-12T04:02:02;30.17;;;16.90;;
19187;SDS011;9726;52.198;8.792;2023-02-12T04:04:30;32.37;;;17.00;;
19187;SDS011;9726;52.198;8.792;2023-02-12T04:06:57;49.17;;;19.60;;
19187;SDS011;9726;52.198;8.792;2023-02-12T04:09:25;38.63;;;19.47;;
19187;SDS011;9726;52.198;8.792;2023-02-12T04:17:29;38.97;;;18.97;;
19187;SDS011;9726;52.198;8.792;2023-02-12T04:22:52;36.00;;;19.63;;
19187;SDS011;9726;52.198;8.792;2023-02-12T04:28:11;41.13;;;21.33;;
19187;SDS011;9726;52.198;8.792;2023-02-12T04:31:05;43.70;;;23.10;;
19187;SDS011;9726;52.198;8.792;2023-02-12T04:33:32;43.60;;;21.70;;
19187;SDS011;9726;52.198;8.792;2023-02-12T04:36:02;45.00;;;23.07;;
19187;SDS011;9726;52.198;8.792;2023-02-12T04:38:33;46.17;;;22.40;;
19187;SDS011;9726;52.198;8.792;2023-02-12T04:41:03;46.97;;;24.23;;
19187;SDS011;9726;52.198;8.792;2023-02-12T04:43:32;47.10;;;22.93;;
19187;SDS011;9726;52.198;8.792;2023-02-12T04:46:03;40.07;;;24.07;;
19187;SDS011;9726;52.198;8.792;2023-02-12T04:48:31;46.90;;;25.10;;
19187;SDS011;9726;52.198;8.792;2023-02-12T04:51:00;55.83;;;24.37;;
19187;SDS011;9726;52.198;8.792;2023-02-12T04:53:27;53.23;;;23.13;;
19187;SDS011;9726;52.198;8.792;2023-02-12T04:55:54;53.63;;;24.50;;
19187;SDS011;9726;52.198;8.792;2023-02-12T04:58:22;59.13;;;24.97;;
19187;SDS011;9726;52.198;8.792;2023-02-12T05:00:50;57.37;;;25.43;;
19187;SDS011;9726;52.198;8.792;2023-02-12T05:03:17;50.47;;;24.93;;
19187;SDS011;9726;52.198;8.792;2023-02-12T05:05:44;59.97;;;27.13;;
19187;SDS011;9726;52.198;8.792;2023-02-12T05:08:11;60.77;;;28.23;;
19187;SDS011;9726;52.198;8.792;2023-02-12T05:10:39;53.43;;;28.73;;
19187;SDS011;9726;52.198;8.792;2023-02-12T05:13:06;60.83;;;28.93;;
19187;SDS011;9726;52.198;8.792;2023-02-12T05:15:34;62.53;;;27.40;;
19187;SDS011;9726;52.198;8.792;2023-02-12T05:18:01;68.73;;;28.50;;
19187;SDS011;9726;52.198;8.792;2023-02-12T05:20:28;75.53;;;29.00;;
19187;SDS011;9726;52.198;8.792;2023-02-12T05:22:56;64.53;;;30.03;;
19187;SDS011;9726;52.198;8.792;2023-02-12T05:25:23;84.93;;;31.47;;
19187;SDS011;9726;52.198;8.792;2023-02-12T05:27:50;65.17;;;31.80;;
19187;SDS011;9726;52.198;8.792;2023-02-12T05:30:18;87.47;;;31.83;;
19187;SDS011;9726;52.198;8.792;2023-02-12T05:32:45;73.93;;;32.83;;
19187;SDS011;9726;52.198;8.792;2023-02-12T05:35:12;83.77;;;33.47;;
19187;SDS011;9726;52.198;8.792;2023-02-12T05:37:40;71.97;;;34.80;;
19187;SDS011;9726;52.198;8.792;2023-02-12T05:40:07;81.97;;;35.53;;
19187;SDS011;9726;52.198;8.792;2023-02-12T05:42:34;76.83;;;34.37;;
19187;SDS011;9726;52.198;8.792;2023-02-12T05:45:02;78.87;;;34.47;;
19187;SDS011;9726;52.198;8.792;2023-02-12T05:47:29;72.87;;;35.67;;
19187;SDS011;9726;52.198;8.792;2023-02-12T05:49:56;89.97;;;36.27;;
19187;SDS011;9726;52.198;8.792;2023-02-12T05:52:24;72.83;;;32.67;;
19187;SDS011;9726;52.198;8.792;2023-02-12T05:54:51;75.53;;;37.07;;
19187;SDS011;9726;52.198;8.792;2023-02-12T05:57:18;85.47;;;36.13;;
19187;SDS011;9726;52.198;8.792;2023-02-12T05:59:46;86.73;;;37.50;;
19187;SDS011;9726;52.198;8.792;2023-02-12T06:02:13;82.03;;;37.63;;
19187;SDS011;9726;52.198;8.792;2023-02-12T06:04:41;81.00;;;36.77;;
19187;SDS011;9726;52.198;8.792;2023-02-12T06:07:08;85.50;;;37.63;;
19187;SDS011;9726;52.198;8.792;2023-02-12T06:09:35;84.63;;;38.37;;
19187;SDS011;9726;52.198;8.792;2023-02-12T06:12:03;95.80;;;37.37;;
19187;SDS011;9726;52.198;8.792;2023-02-12T06:14:30;93.63;;;40.13;;
19187;SDS011;9726;52.198;8.792;2023-02-12T06:16:58;95.33;;;39.60;;
19187;SDS011;9726;52.198;8.792;2023-02-12T06:19:25;82.63;;;37.97;;
19187;SDS011;9726;52.198;8.792;2023-02-12T06:21:53;88.53;;;41.37;;
19187;SDS011;9726;52.198;8.792;2023-02-12T06:24:20;97.87;;;40.70;;
19187;SDS011;9726;52.198;8.792;2023-02-12T06:26:48;120.38;;;55.00;;
19187;SDS011;9726;52.198;8.792;2023-02-12T06:29:16;113.43;;;48.07;;
19187;SDS011;9726;52.198;8.792;2023-02-12T06:31:44;109.80;;;44.73;;
19187;SDS011;9726;52.198;8.792;2023-02-12T06:34:12;104.43;;;41.97;;
19187;SDS011;9726;52.198;8.792;2023-02-12T06:36:40;94.67;;;41.37;;
19187;SDS011;9726;52.198;8.792;2023-02-12T06:39:13;111.97;;;41.43;;
19187;SDS011;9726;52.198;8.792;2023-02-12T06:41:41;101.73;;;38.33;;
19187;SDS011;9726;52.198;8.792;2023-02-12T06:44:09;92.30;;;37.10;;
19187;SDS011;9726;52.198;8.792;2023-02-12T06:46:37;83.27;;;37.63;;
19187;SDS011;9726;52.198;8.792;2023-02-12T06:49:04;85.60;;;37.27;;
19187;SDS011;9726;52.198;8.792;2023-02-12T06:51:32;75.27;;;34.53;;
19187;SDS011;9726;52.198;8.792;2023-02-12T06:54:01;101.07;;;39.33;;
19187;SDS011;9726;52.198;8.792;2023-02-12T06:56:28;91.30;;;37.80;;
19187;SDS011;9726;52.198;8.792;2023-02-12T06:58:57;91.20;;;39.13;;
19187;SDS011;9726;52.198;8.792;2023-02-12T07:01:27;75.70;;;34.77;;
19187;SDS011;9726;52.198;8.792;2023-02-12T07:03:58;80.90;;;34.33;;
19187;SDS011;9726;52.198;8.792;2023-02-12T07:06:28;73.63;;;33.63;;
19187;SDS011;9726;52.198;8.792;2023-02-12T07:08:56;78.27;;;35.30;;
19187;SDS011;9726;52.198;8.792;2023-02-12T07:11:27;84.60;;;36.40;;
19187;SDS011;9726;52.198;8.792;2023-02-12T07:13:55;80.83;;;36.30;;
19187;SDS011;9726;52.198;8.792;2023-02-12T07:16:22;69.10;;;32.90;;
19187;SDS011;9726;52.198;8.792;2023-02-12T07:18:50;69.50;;;33.17;;
19187;SDS011;9726;52.198;8.792;2023-02-12T07:21:17;74.03;;;31.73;;
19187;SDS011;9726;52.198;8.792;2023-02-12T07:23:46;74.93;;;35.77;;
19187;SDS011;9726;52.198;8.792;2023-02-12T07:26:17;75.53;;;35.03;;
19187;SDS011;9726;52.198;8.792;2023-02-12T07:28:45;86.50;;;37.73;;
19187;SDS011;9726;52.198;8.792;2023-02-12T07:31:13;72.73;;;34.77;;
19187;SDS011;9726;52.198;8.792;2023-02-12T07:33:41;68.63;;;34.07;;
19187;SDS011;9726;52.198;8.792;2023-02-12T07:36:11;69.87;;;33.33;;
19187;SDS011;9726;52.198;8.792;2023-02-12T07:38:39;74.67;;;34.83;;
19187;SDS011;9726;52.198;8.792;2023-02-12T07:43:36;73.33;;;34.30;;
19187;SDS011;9726;52.198;8.792;2023-02-12T07:46:07;69.33;;;33.83;;
19187;SDS011;9726;52.198;8.792;2023-02-12T07:48:35;78.43;;;34.67;;
19187;SDS011;9726;52.198;8.792;2023-02-12T07:51:03;72.03;;;35.60;;
19187;SDS011;9726;52.198;8.792;2023-02-12T07:53:31;73.73;;;35.20;;
19187;SDS011;9726;52.198;8.792;2023-02-12T07:56:08;75.17;;;34.43;;
19187;SDS011;9726;52.198;8.792;2023-02-12T07:58:36;72.27;;;36.27;;
19187;SDS011;9726;52.198;8.792;2023-02-12T08:01:38;79.93;;;37.30;;
19187;SDS011;9726;52.198;8.792;2023-02-12T08:03:58;75.03;;;35.80;;
19187;SDS011;9726;52.198;8.792;2023-02-12T08:06:27;79.73;;;36.03;;
19187;SDS011;9726;52.198;8.792;2023-02-12T08:08:56;77.43;;;37.87;;
19187;SDS011;9726;52.198;8.792;2023-02-12T08:11:24;76.17;;;38.00;;
19187;SDS011;9726;52.198;8.792;2023-02-12T08:13:52;72.00;;;35.13;;
19187;SDS011;9726;52.198;8.792;2023-02-12T08:16:21;80.00;;;38.37;;
19187;SDS011;9726;52.198;8.792;2023-02-12T08:18:49;77.07;;;37.47;;
19187;SDS011;9726;52.198;8.792;2023-02-12T08:21:17;82.43;;;37.40;;
19187;SDS011;9726;52.198;8.792;2023-02-12T08:23:48;75.73;;;38.17;;
19187;SDS011;9726;52.198;8.792;2023-02-12T08:26:17;73.17;;;36.07;;
19187;SDS011;9726;52.198;8.792;2023-02-12T08:28:55;71.73;;;37.00;;
19187;SDS011;9726;52.198;8.792;2023-02-12T08:31:24;73.50;;;38.07;;
19187;SDS011;9726;52.198;8.792;2023-02-12T08:33:52;75.07;;;37.93;;
19187;SDS011;9726;52.198;8.792;2023-02-12T08:36:24;76.47;;;37.03;;
19187;SDS011;9726;52.198;8.792;2023-02-12T08:38:52;80.17;;;37.43;;
19187;SDS011;9726;52.198;8.792;2023-02-12T08:41:21;84.70;;;39.40;;
19187;SDS011;9726;52.198;8.792;2023-02-12T08:43:49;90.97;;;41.50;;
19187;SDS011;9726;52.198;8.792;2023-02-12T08:46:18;82.37;;;39.40;;
19187;SDS011;9726;52.198;8.792;2023-02-12T08:48:45;87.07;;;40.20;;
19187;SDS011;9726;52.198;8.792;2023-02-12T08:51:17;84.63;;;39.33;;
19187;SDS011;9726;52.198;8.792;2023-02-12T08:53:45;95.57;;;41.93;;
19187;SDS011;9726;52.198;8.792;2023-02-12T08:56:14;83.33;;;39.77;;
19187;SDS011;9726;52.198;8.792;2023-02-12T08:58:41;88.07;;;41.13;;
19187;SDS011;9726;52.198;8.792;2023-02-12T09:01:10;88.00;;;41.10;;
19187;SDS011;9726;52.198;8.792;2023-02-12T09:03:38;92.80;;;43.40;;
19187;SDS011;9726;52.198;8.792;2023-02-12T09:06:05;83.83;;;41.37;;
19187;SDS011;9726;52.198;8.792;2023-02-12T09:08:35;82.00;;;41.63;;
19187;SDS011;9726;52.198;8.792;2023-02-12T09:11:03;70.90;;;38.47;;
19187;SDS011;9726;52.198;8.792;2023-02-12T09:13:31;75.50;;;38.27;;
19187;SDS011;9726;52.198;8.792;2023-02-12T09:15:59;72.20;;;37.53;;
19187;SDS011;9726;52.198;8.792;2023-02-12T09:18:27;71.80;;;38.33;;
19187;SDS011;9726;52.198;8.792;2023-02-12T09:20:59;71.97;;;39.17;;
19187;SDS011;9726;52.198;8.792;2023-02-12T09:23:27;75.13;;;37.93;;
19187;SDS011;9726;52.198;8.792;2023-02-12T09:25:54;64.43;;;34.90;;
19187;SDS011;9726;52.198;8.792;2023-02-12T09:28:22;67.63;;;37.90;;
19187;SDS011;9726;52.198;8.792;2023-02-12T09:30:50;65.57;;;37.73;;
19187;SDS011;9726;52.198;8.792;2023-02-12T09:33:17;65.53;;;36.60;;
19187;SDS011;9726;52.198;8.792;2023-02-12T09:35:44;64.33;;;35.27;;
19187;SDS011;9726;52.198;8.792;2023-02-12T09:38:12;56.50;;;33.17;;
19187;SDS011;9726;52.198;8.792;2023-02-12T09:41:00;62.97;;;35.50;;
19187;SDS011;9726;52.198;8.792;2023-02-12T09:43:33;61.73;;;34.23;;
19187;SDS011;9726;52.198;8.792;2023-02-12T09:46:04;62.00;;;33.20;;
19187;SDS011;9726;52.198;8.792;2023-02-12T09:48:41;53.10;;;31.03;;
19187;SDS011;9726;52.198;8.792;2023-02-12T09:51:12;50.87;;;29.23;;
19187;SDS011;9726;52.198;8.792;2023-02-12T09:53:41;50.77;;;30.23;;
19187;SDS011;9726;52.198;8.792;2023-02-12T09:56:12;47.90;;;30.47;;
19187;SDS011;9726;52.198;8.792;2023-02-12T10:01:11;46.67;;;27.87;;
19187;SDS011;9726;52.198;8.792;2023-02-12T10:03:39;47.87;;;27.87;;
19187;SDS011;9726;52.198;8.792;2023-02-12T10:06:10;49.17;;;29.83;;
19187;SDS011;9726;52.198;8.792;2023-02-12T10:08:45;48.67;;;28.67;;
19187;SDS011;9726;52.198;8.792;2023-02-12T10:11:18;46.10;;;26.43;;
19187;SDS011;9726;52.198;8.792;2023-02-12T10:17:02;49.07;;;28.40;;
19187;SDS011;9726;52.198;8.792;2023-02-12T10:26:48;56.43;;;31.07;;
19187;SDS011;9726;52.198;8.792;2023-02-12T10:29:23;55.47;;;33.05;;
19187;SDS011;9726;52.198;8.792;2023-02-12T10:31:52;48.57;;;29.47;;
19187;SDS011;9726;52.198;8.792;2023-02-12T10:34:26;56.23;;;31.20;;
19187;SDS011;9726;52.198;8.792;2023-02-12T10:36:58;53.27;;;31.30;;
19187;SDS011;9726;52.198;8.792;2023-02-12T10:39:32;52.67;;;28.23;;
19187;SDS011;9726;52.198;8.792;2023-02-12T10:42:02;54.20;;;29.80;;
19187;SDS011;9726;52.198;8.792;2023-02-12T10:44:34;50.47;;;28.87;;
19187;SDS011;9726;52.198;8.792;2023-02-12T10:47:01;53.97;;;32.42;;
19187;SDS011;9726;52.198;8.792;2023-02-12T10:49:30;52.43;;;29.03;;
19187;SDS011;9726;52.198;8.792;2023-02-12T10:54:39;51.00;;;27.47;;
19187;SDS011;9726;52.198;8.792;2023-02-12T10:59:38;48.77;;;28.17;;
19187;SDS011;9726;52.198;8.792;2023-02-12T11:02:17;51.83;;;26.93;;
19187;SDS011;9726;52.198;8.792;2023-02-12T11:04:45;47.70;;;25.47;;
19187;SDS011;9726;52.198;8.792;2023-02-12T11:07:13;46.47;;;24.87;;
19187;SDS011;9726;52.198;8.792;2023-02-12T11:09:42;53.20;;;27.00;;
19187;SDS011;9726;52.198;8.792;2023-02-12T11:12:29;50.43;;;27.33;;
19187;SDS011;9726;52.198;8.792;2023-02-12T11:14:58;47.20;;;26.60;;
19187;SDS011;9726;52.198;8.792;2023-02-12T11:17:29;57.33;;;27.57;;
19187;SDS011;9726;52.198;8.792;2023-02-12T11:20:00;51.70;;;30.00;;
19187;SDS011;9726;52.198;8.792;2023-02-12T11:22:29;52.53;;;27.03;;
19187;SDS011;9726;52.198;8.792;2023-02-12T11:25:00;50.10;;;27.67;;
19187;SDS011;9726;52.198;8.792;2023-02-12T11:27:29;55.70;;;30.07;;
19187;SDS011;9726;52.198;8.792;2023-02-12T11:30:10;58.57;;;29.47;;
19187;SDS011;9726;52.198;8.792;2023-02-12T11:32:38;59.23;;;29.47;;
19187;SDS011;9726;52.198;8.792;2023-02-12T11:37:43;59.33;;;31.00;;
19187;SDS011;9726;52.198;8.792;2023-02-12T11:40:19;51.57;;;28.27;;
19187;SDS011;9726;52.198;8.792;2023-02-12T11:42:57;53.90;;;30.07;;
19187;SDS011;9726;52.198;8.792;2023-02-12T11:45:27;56.57;;;29.23;;
19187;SDS011;9726;52.198;8.792;2023-02-12T11:47:55;54.07;;;26.83;;
19187;SDS011;9726;52.198;8.792;2023-02-12T11:50:27;52.40;;;27.50;;
19187;SDS011;9726;52.198;8.792;2023-02-12T11:52:56;58.00;;;29.33;;
19187;SDS011;9726;52.198;8.792;2023-02-12T11:55:25;62.40;;;31.93;;
19187;SDS011;9726;52.198;8.792;2023-02-12T11:57:54;59.90;;;29.10;;
19187;SDS011;9726;52.198;8.792;2023-02-12T12:00:36;58.33;;;30.67;;
19187;SDS011;9726;52.198;8.792;2023-02-12T12:06:05;54.07;;;28.57;;
19187;SDS011;9726;52.198;8.792;2023-02-12T12:08:43;46.30;;;27.07;;
19187;SDS011;9726;52.198;8.792;2023-02-12T12:13:43;49.97;;;25.40;;
19187;SDS011;9726;52.198;8.792;2023-02-12T12:16:16;50.03;;;27.10;;
19187;SDS011;9726;52.198;8.792;2023-02-12T12:19:07;49.57;;;26.53;;
19187;SDS011;9726;52.198;8.792;2023-02-12T12:22:02;50.47;;;25.87;;
19187;SDS011;9726;52.198;8.792;2023-02-12T12:24:34;41.60;;;23.80;;
19187;SDS011;9726;52.198;8.792;2023-02-12T12:27:14;50.23;;;24.37;;
19187;SDS011;9726;52.198;8.792;2023-02-12T12:30:05;41.37;;;23.43;;
19187;SDS011;9726;52.198;8.792;2023-02-12T12:32:36;42.43;;;22.83;;
19187;SDS011;9726;52.198;8.792;2023-02-12T12:35:09;36.47;;;21.40;;
19187;SDS011;9726;52.198;8.792;2023-02-12T12:37:43;38.07;;;22.83;;
19187;SDS011;9726;52.198;8.792;2023-02-12T12:45:33;34.97;;;19.63;;
19187;SDS011;9726;52.198;8.792;2023-02-12T12:48:14;40.57;;;20.47;;
19187;SDS011;9726;52.198;8.792;2023-02-12T12:53:17;33.50;;;17.70;;
19187;SDS011;9726;52.198;8.792;2023-02-12T13:03:17;33.63;;;19.77;;
19187;SDS011;9726;52.198;8.792;2023-02-12T13:05:50;30.67;;;17.10;;
19187;SDS011;9726;52.198;8.792;2023-02-12T13:08:25;31.87;;;17.87;;
19187;SDS011;9726;52.198;8.792;2023-02-12T13:10:59;27.13;;;17.10;;
19187;SDS011;9726;52.198;8.792;2023-02-12T13:13:34;29.67;;;15.73;;
19187;SDS011;9726;52.198;8.792;2023-02-12T13:18:35;33.03;;;17.13;;
19187;SDS011;9726;52.198;8.792;2023-02-12T13:23:49;27.27;;;15.57;;
19187;SDS011;9726;52.198;8.792;2023-02-12T13:28:50;23.63;;;12.83;;
19187;SDS011;9726;52.198;8.792;2023-02-12T13:31:23;21.20;;;12.40;;
19187;SDS011;9726;52.198;8.792;2023-02-12T13:34:03;21.43;;;12.07;;
19187;SDS011;9726;52.198;8.792;2023-02-12T13:36:32;17.27;;;10.13;;
19187;SDS011;9726;52.198;8.792;2023-02-12T13:41:52;16.10;;;8.47;;
19187;SDS011;9726;52.198;8.792;2023-02-12T13:44:25;18.00;;;10.03;;
19187;SDS011;9726;52.198;8.792;2023-02-12T13:47:10;17.13;;;11.07;;
19187;SDS011;9726;52.198;8.792;2023-02-12T13:49:47;16.43;;;10.07;;
19187;SDS011;9726;52.198;8.792;2023-02-12T13:57:20;17.87;;;11.23;;
19187;SDS011;9726;52.198;8.792;2023-02-12T13:59:51;22.73;;;12.20;;
19187;SDS011;9726;52.198;8.792;2023-02-12T14:05:00;15.97;;;9.33;;
19187;SDS011;9726;52.198;8.792;2023-02-12T14:07:41;16.67;;;9.70;;
19187;SDS011;9726;52.198;8.792;2023-02-12T14:11:01;14.63;;;9.23;;
19187;SDS011;9726;52.198;8.792;2023-02-12T14:12:58;14.93;;;8.93;;
19187;SDS011;9726;52.198;8.792;2023-02-12T14:15:35;15.27;;;8.37;;
19187;SDS011;9726;52.198;8.792;2023-02-12T14:18:05;9.63;;;6.97;;
19187;SDS011;9726;52.198;8.792;2023-02-12T14:20:36;13.40;;;8.23;;
19187;SDS011;9726;52.198;8.792;2023-02-12T14:23:20;14.47;;;8.70;;
19187;SDS011;9726;52.198;8.792;2023-02-12T14:25:54;11.87;;;8.23;;
19187;SDS011;9726;52.198;8.792;2023-02-12T14:28:27;11.03;;;7.50;;
19187;SDS011;9726;52.198;8.792;2023-02-12T14:33:42;12.03;;;9.00;;
19187;SDS011;9726;52.198;8.792;2023-02-12T14:38:57;11.80;;;7.37;;
19187;SDS011;9726;52.198;8.792;2023-02-12T14:41:26;13.63;;;8.20;;
19187;SDS011;9726;52.198;8.792;2023-02-12T14:46:49;13.60;;;9.07;;
19187;SDS011;9726;52.198;8.792;2023-02-12T14:49:18;13.43;;;7.77;;
19187;SDS011;9726;52.198;8.792;2023-02-12T14:57:21;13.87;;;8.33;;
19187;SDS011;9726;52.198;8.792;2023-02-12T14:59:49;12.93;;;7.60;;
19187;SDS011;9726;52.198;8.792;2023-02-12T15:02:25;10.77;;;7.67;;
19187;SDS011;9726;52.198;8.792;2023-02-12T15:04:56;13.73;;;7.73;;
19187;SDS011;9726;52.198;8.792;2023-02-12T15:07:42;14.27;;;7.83;;
19187;SDS011;9726;52.198;8.792;2023-02-12T15:10:33;11.90;;;7.30;;
19187;SDS011;9726;52.198;8.792;2023-02-12T15:15:32;15.37;;;8.53;;
19187;SDS011;9726;52.198;8.792;2023-02-12T15:18:05;16.73;;;7.77;;
19187;SDS011;9726;52.198;8.792;2023-02-12T15:20:58;13.43;;;6.87;;
19187;SDS011;9726;52.198;8.792;2023-02-12T15:23:35;12.27;;;7.63;;
19187;SDS011;9726;52.198;8.792;2023-02-12T15:26:03;11.57;;;7.33;;
19187;SDS011;9726;52.198;8.792;2023-02-12T15:28:32;15.33;;;7.87;;
19187;SDS011;9726;52.198;8.792;2023-02-12T15:31:02;11.70;;;7.20;;
19187;SDS011;9726;52.198;8.792;2023-02-12T15:33:32;13.37;;;8.43;;
19187;SDS011;9726;52.198;8.792;2023-02-12T15:36:01;10.40;;;7.57;;
19187;SDS011;9726;52.198;8.792;2023-02-12T15:38:35;10.33;;;7.00;;
19187;SDS011;9726;52.198;8.792;2023-02-12T15:41:04;10.07;;;6.87;;
19187;SDS011;9726;52.198;8.792;2023-02-12T15:43:32;13.30;;;6.67;;
19187;SDS011;9726;52.198;8.792;2023-02-12T15:46:01;10.33;;;6.87;;
19187;SDS011;9726;52.198;8.792;2023-02-12T15:48:30;9.93;;;6.60;;
19187;SDS011;9726;52.198;8.792;2023-02-12T15:53:28;13.00;;;7.80;;
19187;SDS011;9726;52.198;8.792;2023-02-12T15:55:57;15.63;;;9.53;;
19187;SDS011;9726;52.198;8.792;2023-02-12T15:58:30;12.10;;;7.47;;
19187;SDS011;9726;52.198;8.792;2023-02-12T16:01:03;13.13;;;8.17;;
19187;SDS011;9726;52.198;8.792;2023-02-12T16:03:32;13.77;;;8.77;;
19187;SDS011;9726;52.198;8.792;2023-02-12T16:08:37;16.57;;;8.27;;
19187;SDS011;9726;52.198;8.792;2023-02-12T16:11:05;13.40;;;8.53;;
19187;SDS011;9726;52.198;8.792;2023-02-12T16:13:44;16.83;;;9.30;;
19187;SDS011;9726;52.198;8.792;2023-02-12T16:18:40;13.77;;;9.53;;
19187;SDS011;9726;52.198;8.792;2023-02-12T16:21:13;16.17;;;8.13;;
19187;SDS011;9726;52.198;8.792;2023-02-12T16:23:42;13.67;;;8.50;;
19187;SDS011;9726;52.198;8.792;2023-02-12T16:26:20;12.50;;;8.10;;
19187;SDS011;9726;52.198;8.792;2023-02-12T16:28:49;15.40;;;9.03;;
19187;SDS011;9726;52.198;8.792;2023-02-12T16:31:18;14.20;;;7.80;;
19187;SDS011;9726;52.198;8.792;2023-02-12T16:33:51;12.57;;;8.07;;
19187;SDS011;9726;52.198;8.792;2023-02-12T16:38:52;12.47;;;7.57;;
19187;SDS011;9726;52.198;8.792;2023-02-12T16:46:28;13.80;;;8.33;;
19187;SDS011;9726;52.198;8.792;2023-02-12T16:48:56;14.33;;;8.53;;
19187;SDS011;9726;52.198;8.792;2023-02-12T16:53:54;13.53;;;8.10;;
19187;SDS011;9726;52.198;8.792;2023-02-12T16:56:23;17.53;;;10.57;;
19187;SDS011;9726;52.198;8.792;2023-02-12T16:58:52;18.07;;;11.00;;
19187;SDS011;9726;52.198;8.792;2023-02-12T17:03:48;18.40;;;9.73;;
19187;SDS011;9726;52.198;8.792;2023-02-12T17:06:17;16.33;;;9.73;;
19187;SDS011;9726;52.198;8.792;2023-02-12T17:08:45;13.83;;;9.50;;
19187;SDS011;9726;52.198;8.792;2023-02-12T17:11:12;16.10;;;9.00;;
19187;SDS011;9726;52.198;8.792;2023-02-12T17:13:45;15.97;;;9.00;;